sensor_id;sensor_type;location;lat;lon;timestamp;pressure;altitude;pressure_sealevel;temperature;humidity
36258;BME280;22294;52.044;4.582;2023-02-21T00:02:09;77468.53;;;-144.37;100.00
36258;BME280;22294;52.044;4.582;2023-02-21T00:04:53;77470.56;;;-144.37;100.00
36258;BME280;22294;52.044;4.582;2023-02-21T00:07:37;77470.56;;;-144.37;100.00
36258;BME280;22294;52.044;4.582;2023-02-21T00:10:21;77476.72;;;-144.37;100.00
36258;BME280;22294;52.044;4.582;2023-02-21T00:13:04;77478.75;;;-144.37;100.00
36258;BME280;22294;52.044;4.582;2023-02-21T00:15:48;77464.44;;;-144.37;100.00
36258;BME280;22294;52.044;4.582;2023-02-21T00:18:34;77462.38;;;-144.37;100.00
36258;BME280;22294;52.044;4.582;2023-02-21T00:21:18;77484.91;;;-144.37;100.00
36258;BME280;22294;52.044;4.582;2023-02-21T00:24:02;77480.81;;;-144.37;100.00
36258;BME280;22294;52.044;4.582;2023-02-21T00:26:46;77482.84;;;-144.37;100.00
36258;BME280;22294;52.044;4.582;2023-02-21T00:29:29;77478.75;;;-144.37;100.00
36258;BME280;22294;52.044;4.582;2023-02-21T00:32:13;77466.47;;;-144.37;100.00
36258;BME280;22294;52.044;4.582;2023-02-21T00:34:57;77474.66;;;-144.37;100.00
36258;BME280;22294;52.044;4.582;2023-02-21T00:37:41;77472.63;;;-144.37;100.00
36258;BME280;22294;52.044;4.582;2023-02-21T00:40:25;77468.53;;;-144.37;100.00
36258;BME280;22294;52.044;4.582;2023-02-21T00:43:09;77476.72;;;-144.37;100.00
36258;BME280;22294;52.044;4.582;2023-02-21T00:45:53;77470.56;;;-144.37;100.00
36258;BME280;22294;52.044;4.582;2023-02-21T00:48:37;77482.84;;;-144.37;100.00
36258;BME280;22294;52.044;4.582;2023-02-21T00:51:21;77466.47;;;-144.37;100.00
36258;BME280;22294;52.044;4.582;2023-02-21T00:54:05;77470.56;;;-144.37;100.00
36258;BME280;22294;52.044;4.582;2023-02-21T00:56:49;77470.56;;;-144.37;100.00
36258;BME280;22294;52.044;4.582;2023-02-21T00:59:33;77464.44;;;-144.37;100.00
36258;BME280;22294;52.044;4.582;2023-02-21T01:02:18;77464.44;;;-144.37;100.00
36258;BME280;22294;52.044;4.582;2023-02-21T01:05:02;77470.56;;;-144.37;100.00
36258;BME280;22294;52.044;4.582;2023-02-21T01:07:46;77466.47;;;-144.37;100.00
36258;BME280;22294;52.044;4.582;2023-02-21T01:10:31;77452.16;;;-144.37;100.00
36258;BME280;22294;52.044;4.582;2023-02-21T01:13:15;77458.28;;;-144.37;100.00
36258;BME280;22294;52.044;4.582;2023-02-21T01:15:59;77450.13;;;-144.37;100.00
36258;BME280;22294;52.044;4.582;2023-02-21T01:18:43;77441.94;;;-144.37;100.00
36258;BME280;22294;52.044;4.582;2023-02-21T01:21:27;77441.94;;;-144.37;100.00
36258;BME280;22294;52.044;4.582;2023-02-21T01:24:13;77435.78;;;-144.37;100.00
36258;BME280;22294;52.044;4.582;2023-02-21T01:26:58;77433.75;;;-144.37;100.00
36258;BME280;22294;52.044;4.582;2023-02-21T01:29:41;77437.84;;;-144.37;100.00
36258;BME280;22294;52.044;4.582;2023-02-21T01:32:27;77423.53;;;-144.37;100.00
36258;BME280;22294;52.044;4.582;2023-02-21T01:35:11;77425.56;;;-144.37;100.00
36258;BME280;22294;52.044;4.582;2023-02-21T01:37:56;77421.47;;;-144.37;100.00
36258;BME280;22294;52.044;4.582;2023-02-21T01:40:41;77421.47;;;-144.37;100.00
36258;BME280;22294;52.044;4.582;2023-02-21T01:43:26;77417.38;;;-144.37;100.00
36258;BME280;22294;52.044;4.582;2023-02-21T01:46:15;77417.38;;;-144.37;100.00
36258;BME280;22294;52.044;4.582;2023-02-21T01:49:04;77413.28;;;-144.37;100.00
36258;BME280;22294;52.044;4.582;2023-02-21T01:51:49;77413.28;;;-144.37;100.00
36258;BME280;22294;52.044;4.582;2023-02-21T01:54:40;77417.38;;;-144.37;100.00
36258;BME280;22294;52.044;4.582;2023-02-21T01:57:24;77413.28;;;-144.37;100.00
36258;BME280;22294;52.044;4.582;2023-02-21T02:00:11;77425.56;;;-144.37;100.00
36258;BME280;22294;52.044;4.582;2023-02-21T02:05:47;77411.25;;;-144.37;100.00
36258;BME280;22294;52.044;4.582;2023-02-21T02:08:32;77407.16;;;-144.37;100.00
36258;BME280;22294;52.044;4.582;2023-02-21T02:16:55;77411.25;;;-144.37;100.00
36258;BME280;22294;52.044;4.582;2023-02-21T02:19:59;77405.09;;;-144.37;100.00
36258;BME280;22294;52.044;4.582;2023-02-21T02:22:40;77409.19;;;-144.37;100.00
36258;BME280;22294;52.044;4.582;2023-02-21T02:28:09;77390.78;;;-144.37;100.00
36258;BME280;22294;52.044;4.582;2023-02-21T02:30:57;77384.66;;;-144.37;100.00
36258;BME280;22294;52.044;4.582;2023-02-21T02:36:13;77376.47;;;-144.37;100.00
36258;BME280;22294;52.044;4.582;2023-02-21T02:39:10;77370.34;;;-144.37;100.00
36258;BME280;22294;52.044;4.582;2023-02-21T02:41:52;77372.38;;;-144.37;100.00
36258;BME280;22294;52.044;4.582;2023-02-21T02:44:27;77362.16;;;-144.37;100.00
36258;BME280;22294;52.044;4.582;2023-02-21T02:46:58;77364.19;;;-144.37;100.00
36258;BME280;22294;52.044;4.582;2023-02-21T02:49:27;77366.25;;;-144.37;100.00
36258;BME280;22294;52.044;4.582;2023-02-21T02:51:53;77374.41;;;-144.37;100.00
36258;BME280;22294;52.044;4.582;2023-02-21T02:54:19;77372.38;;;-144.37;100.00
36258;BME280;22294;52.044;4.582;2023-02-21T02:56:45;77376.47;;;-144.37;100.00
36258;BME280;22294;52.044;4.582;2023-02-21T02:59:22;77374.41;;;-144.37;100.00
36258;BME280;22294;52.044;4.582;2023-02-21T03:07:24;77366.25;;;-144.37;100.00
36258;BME280;22294;52.044;4.582;2023-02-21T03:12:53;77374.41;;;-144.37;100.00
36258;BME280;22294;52.044;4.582;2023-02-21T03:15:51;77372.38;;;-144.37;100.00
36258;BME280;22294;52.044;4.582;2023-02-21T03:18:26;77376.47;;;-144.37;100.00
36258;BME280;22294;52.044;4.582;2023-02-21T03:20:55;77366.25;;;-144.37;100.00
36258;BME280;22294;52.044;4.582;2023-02-21T03:23:24;77362.16;;;-144.37;100.00
36258;BME280;22294;52.044;4.582;2023-02-21T03:25:52;77364.19;;;-144.37;100.00
36258;BME280;22294;52.044;4.582;2023-02-21T03:28:21;77374.41;;;-144.37;100.00
36258;BME280;22294;52.044;4.582;2023-02-21T03:30:48;77370.34;;;-144.37;100.00
36258;BME280;22294;52.044;4.582;2023-02-21T03:33:15;77364.19;;;-144.37;100.00
36258;BME280;22294;52.044;4.582;2023-02-21T03:35:41;77372.38;;;-144.37;100.00
36258;BME280;22294;52.044;4.582;2023-02-21T03:38:09;77364.19;;;-144.37;100.00
36258;BME280;22294;52.044;4.582;2023-02-21T03:40:35;77368.28;;;-144.37;100.00
36258;BME280;22294;52.044;4.582;2023-02-21T03:43:01;77366.25;;;-144.37;100.00
36258;BME280;22294;52.044;4.582;2023-02-21T03:45:27;77364.19;;;-144.37;100.00
36258;BME280;22294;52.044;4.582;2023-02-21T03:47:52;77364.19;;;-144.37;100.00
36258;BME280;22294;52.044;4.582;2023-02-21T03:50:18;77372.38;;;-144.37;100.00
36258;BME280;22294;52.044;4.582;2023-02-21T03:52:43;77364.19;;;-144.37;100.00
36258;BME280;22294;52.044;4.582;2023-02-21T03:55:09;77364.19;;;-144.37;100.00
36258;BME280;22294;52.044;4.582;2023-02-21T03:57:34;77356.00;;;-144.37;100.00
36258;BME280;22294;52.044;4.582;2023-02-21T04:00:01;77360.09;;;-144.37;100.00
36258;BME280;22294;52.044;4.582;2023-02-21T04:02:27;77351.91;;;-144.37;100.00
36258;BME280;22294;52.044;4.582;2023-02-21T04:04:52;77343.72;;;-144.37;100.00
36258;BME280;22294;52.044;4.582;2023-02-21T04:07:19;77345.78;;;-144.37;100.00
36258;BME280;22294;52.044;4.582;2023-02-21T04:09:45;77364.19;;;-144.37;100.00
36258;BME280;22294;52.044;4.582;2023-02-21T04:12:10;77356.00;;;-144.37;100.00
36258;BME280;22294;52.044;4.582;2023-02-21T04:14:36;77366.25;;;-144.37;100.00
36258;BME280;22294;52.044;4.582;2023-02-21T04:17:02;77368.28;;;-144.37;100.00
36258;BME280;22294;52.044;4.582;2023-02-21T04:19:27;77364.19;;;-144.37;100.00
36258;BME280;22294;52.044;4.582;2023-02-21T04:21:52;77370.34;;;-144.37;100.00
36258;BME280;22294;52.044;4.582;2023-02-21T04:24:17;77374.41;;;-144.37;100.00
36258;BME280;22294;52.044;4.582;2023-02-21T04:26:43;77372.38;;;-144.37;100.00
36258;BME280;22294;52.044;4.582;2023-02-21T04:29:08;77368.28;;;-144.37;100.00
36258;BME280;22294;52.044;4.582;2023-02-21T04:31:34;77372.38;;;-144.37;100.00
36258;BME280;22294;52.044;4.582;2023-02-21T04:33:59;77380.56;;;-144.37;100.00
36258;BME280;22294;52.044;4.582;2023-02-21T04:36:25;77374.41;;;-144.37;100.00
36258;BME280;22294;52.044;4.582;2023-02-21T04:38:51;77378.50;;;-144.37;100.00
36258;BME280;22294;52.044;4.582;2023-02-21T04:41:16;77374.41;;;-144.37;100.00
36258;BME280;22294;52.044;4.582;2023-02-21T04:43:43;77378.50;;;-144.37;100.00
36258;BME280;22294;52.044;4.582;2023-02-21T04:46:09;77376.47;;;-144.37;100.00
36258;BME280;22294;52.044;4.582;2023-02-21T04:48:34;77370.34;;;-144.37;100.00
36258;BME280;22294;52.044;4.582;2023-02-21T04:51:00;77368.28;;;-144.37;100.00
36258;BME280;22294;52.044;4.582;2023-02-21T04:53:25;77362.16;;;-144.37;100.00
36258;BME280;22294;52.044;4.582;2023-02-21T04:55:50;77364.19;;;-144.37;100.00
36258;BME280;22294;52.044;4.582;2023-02-21T04:58:19;77368.28;;;-144.37;100.00
36258;BME280;22294;52.044;4.582;2023-02-21T05:00:44;77368.28;;;-144.37;100.00
36258;BME280;22294;52.044;4.582;2023-02-21T05:03:09;77364.19;;;-144.37;100.00
36258;BME280;22294;52.044;4.582;2023-02-21T05:05:34;77372.38;;;-144.37;100.00
36258;BME280;22294;52.044;4.582;2023-02-21T05:08:00;77356.00;;;-144.37;100.00
36258;BME280;22294;52.044;4.582;2023-02-21T05:10:25;77351.91;;;-144.37;100.00
36258;BME280;22294;52.044;4.582;2023-02-21T05:12:52;77362.16;;;-144.37;100.00
36258;BME280;22294;52.044;4.582;2023-02-21T05:15:17;77353.97;;;-144.37;100.00
36258;BME280;22294;52.044;4.582;2023-02-21T05:17:42;77353.97;;;-144.37;100.00
36258;BME280;22294;52.044;4.582;2023-02-21T05:20:10;77356.00;;;-144.37;100.00
36258;BME280;22294;52.044;4.582;2023-02-21T05:22:40;77362.16;;;-144.37;100.00
36258;BME280;22294;52.044;4.582;2023-02-21T05:25:08;77353.97;;;-144.37;100.00
36258;BME280;22294;52.044;4.582;2023-02-21T05:27:38;77356.00;;;-144.37;100.00
36258;BME280;22294;52.044;4.582;2023-02-21T05:30:03;77364.19;;;-144.37;100.00
36258;BME280;22294;52.044;4.582;2023-02-21T05:32:29;77362.16;;;-144.37;100.00
36258;BME280;22294;52.044;4.582;2023-02-21T05:34:54;77370.34;;;-144.37;100.00
36258;BME280;22294;52.044;4.582;2023-02-21T05:37:19;77353.97;;;-144.37;100.00
36258;BME280;22294;52.044;4.582;2023-02-21T05:39:46;77351.91;;;-144.37;100.00
36258;BME280;22294;52.044;4.582;2023-02-21T05:42:11;77356.00;;;-144.37;100.00
36258;BME280;22294;52.044;4.582;2023-02-21T05:44:37;77349.88;;;-144.37;100.00
36258;BME280;22294;52.044;4.582;2023-02-21T05:47:02;77353.97;;;-144.37;100.00
36258;BME280;22294;52.044;4.582;2023-02-21T05:49:28;77351.91;;;-144.37;100.00
36258;BME280;22294;52.044;4.582;2023-02-21T05:51:53;77345.78;;;-144.37;100.00
36258;BME280;22294;52.044;4.582;2023-02-21T05:54:20;77345.78;;;-144.37;100.00
36258;BME280;22294;52.044;4.582;2023-02-21T05:56:47;77331.47;;;-144.37;100.00
36258;BME280;22294;52.044;4.582;2023-02-21T05:59:14;77329.41;;;-144.37;100.00
36258;BME280;22294;52.044;4.582;2023-02-21T06:01:39;77329.41;;;-144.37;100.00
36258;BME280;22294;52.044;4.582;2023-02-21T06:04:05;77339.66;;;-144.37;100.00
36258;BME280;22294;52.044;4.582;2023-02-21T06:06:34;77349.88;;;-144.37;100.00
36258;BME280;22294;52.044;4.582;2023-02-21T06:08:59;77349.88;;;-144.37;100.00
36258;BME280;22294;52.044;4.582;2023-02-21T06:11:27;77341.69;;;-144.37;100.00
36258;BME280;22294;52.044;4.582;2023-02-21T06:13:55;77341.69;;;-144.37;100.00
36258;BME280;22294;52.044;4.582;2023-02-21T06:16:21;77333.50;;;-144.37;100.00
36258;BME280;22294;52.044;4.582;2023-02-21T06:18:51;77345.78;;;-144.37;100.00
36258;BME280;22294;52.044;4.582;2023-02-21T06:21:16;77343.72;;;-144.37;100.00
36258;BME280;22294;52.044;4.582;2023-02-21T06:23:41;77339.66;;;-144.37;100.00
36258;BME280;22294;52.044;4.582;2023-02-21T06:26:07;77349.88;;;-144.37;100.00
36258;BME280;22294;52.044;4.582;2023-02-21T06:28:32;77347.81;;;-144.37;100.00
36258;BME280;22294;52.044;4.582;2023-02-21T06:30:57;77343.72;;;-144.37;100.00
36258;BME280;22294;52.044;4.582;2023-02-21T06:33:23;77343.72;;;-144.37;100.00
36258;BME280;22294;52.044;4.582;2023-02-21T06:35:49;77345.78;;;-144.37;100.00
36258;BME280;22294;52.044;4.582;2023-02-21T06:38:14;77347.81;;;-144.37;100.00
36258;BME280;22294;52.044;4.582;2023-02-21T06:40:39;77345.78;;;-144.37;100.00
36258;BME280;22294;52.044;4.582;2023-02-21T06:43:05;77345.78;;;-144.37;100.00
36258;BME280;22294;52.044;4.582;2023-02-21T06:45:30;77347.81;;;-144.37;100.00
36258;BME280;22294;52.044;4.582;2023-02-21T06:47:56;77347.81;;;-144.37;100.00
36258;BME280;22294;52.044;4.582;2023-02-21T06:50:21;77351.91;;;-144.37;100.00
36258;BME280;22294;52.044;4.582;2023-02-21T06:52:46;77360.09;;;-144.37;100.00
36258;BME280;22294;52.044;4.582;2023-02-21T06:55:12;77356.00;;;-144.37;100.00
36258;BME280;22294;52.044;4.582;2023-02-21T06:57:37;77353.97;;;-144.37;100.00
36258;BME280;22294;52.044;4.582;2023-02-21T07:00:04;77349.88;;;-144.37;100.00
36258;BME280;22294;52.044;4.582;2023-02-21T07:02:29;77347.81;;;-144.37;100.00
36258;BME280;22294;52.044;4.582;2023-02-21T07:04:55;77347.81;;;-144.37;100.00
36258;BME280;22294;52.044;4.582;2023-02-21T07:07:20;77341.69;;;-144.37;100.00
36258;BME280;22294;52.044;4.582;2023-02-21T07:09:45;77343.72;;;-144.37;100.00
36258;BME280;22294;52.044;4.582;2023-02-21T07:12:10;77349.88;;;-144.37;100.00
36258;BME280;22294;52.044;4.582;2023-02-21T07:14:36;77343.72;;;-144.37;100.00
36258;BME280;22294;52.044;4.582;2023-02-21T07:17:01;77341.69;;;-144.37;100.00
36258;BME280;22294;52.044;4.582;2023-02-21T07:19:26;77341.69;;;-144.37;100.00
36258;BME280;22294;52.044;4.582;2023-02-21T07:21:52;77339.66;;;-144.37;100.00
36258;BME280;22294;52.044;4.582;2023-02-21T07:24:17;77333.50;;;-144.37;100.00
36258;BME280;22294;52.044;4.582;2023-02-21T07:26:43;77331.47;;;-144.37;100.00
36258;BME280;22294;52.044;4.582;2023-02-21T07:29:08;77337.59;;;-144.37;100.00
36258;BME280;22294;52.044;4.582;2023-02-21T07:31:33;77331.47;;;-144.37;100.00
36258;BME280;22294;52.044;4.582;2023-02-21T07:33:58;77331.47;;;-144.37;100.00
36258;BME280;22294;52.044;4.582;2023-02-21T07:36:24;77327.38;;;-144.37;100.00
36258;BME280;22294;52.044;4.582;2023-02-21T07:38:49;77337.59;;;-144.37;100.00
36258;BME280;22294;52.044;4.582;2023-02-21T07:41:15;77323.28;;;-144.37;100.00
36258;BME280;22294;52.044;4.582;2023-02-21T07:43:41;77331.47;;;-144.37;100.00
36258;BME280;22294;52.044;4.582;2023-02-21T07:46:13;77333.50;;;-144.37;100.00
36258;BME280;22294;52.044;4.582;2023-02-21T07:48:39;77329.41;;;-144.37;100.00
36258;BME280;22294;52.044;4.582;2023-02-21T07:51:08;77325.31;;;-144.37;100.00
36258;BME280;22294;52.044;4.582;2023-02-21T07:53:34;77329.41;;;-144.37;100.00
36258;BME280;22294;52.044;4.582;2023-02-21T07:56:01;77323.28;;;-144.37;100.00
36258;BME280;22294;52.044;4.582;2023-02-21T07:58:27;77333.50;;;-144.37;100.00
36258;BME280;22294;52.044;4.582;2023-02-21T08:00:52;77321.22;;;-144.37;100.00
36258;BME280;22294;52.044;4.582;2023-02-21T08:03:19;77323.28;;;-144.37;100.00
36258;BME280;22294;52.044;4.582;2023-02-21T08:05:45;77321.22;;;-144.37;100.00
36258;BME280;22294;52.044;4.582;2023-02-21T08:08:11;77323.28;;;-144.37;100.00
36258;BME280;22294;52.044;4.582;2023-02-21T08:10:36;77327.38;;;-144.37;100.00
36258;BME280;22294;52.044;4.582;2023-02-21T08:13:01;77335.56;;;-144.37;100.00
36258;BME280;22294;52.044;4.582;2023-02-21T08:15:27;77339.66;;;-144.37;100.00
36258;BME280;22294;52.044;4.582;2023-02-21T08:17:53;77333.50;;;-144.37;100.00
36258;BME280;22294;52.044;4.582;2023-02-21T08:20:18;77323.28;;;-144.37;100.00
36258;BME280;22294;52.044;4.582;2023-02-21T08:22:44;77317.13;;;-144.37;100.00
36258;BME280;22294;52.044;4.582;2023-02-21T08:25:14;77323.28;;;-144.37;100.00
36258;BME280;22294;52.044;4.582;2023-02-21T08:27:40;77329.41;;;-144.37;100.00
36258;BME280;22294;52.044;4.582;2023-02-21T08:30:10;77317.13;;;-144.37;100.00
36258;BME280;22294;52.044;4.582;2023-02-21T08:32:36;77319.19;;;-144.37;100.00
36258;BME280;22294;52.044;4.582;2023-02-21T08:35:02;77317.13;;;-144.37;100.00
36258;BME280;22294;52.044;4.582;2023-02-21T08:37:31;77321.22;;;-144.37;100.00
36258;BME280;22294;52.044;4.582;2023-02-21T08:39:58;77321.22;;;-144.37;100.00
36258;BME280;22294;52.044;4.582;2023-02-21T08:42:24;77317.13;;;-144.37;100.00
36258;BME280;22294;52.044;4.582;2023-02-21T08:44:49;77313.03;;;-144.37;100.00
36258;BME280;22294;52.044;4.582;2023-02-21T08:47:16;77311.00;;;-144.37;100.00
36258;BME280;22294;52.044;4.582;2023-02-21T08:49:47;77306.91;;;-144.37;100.00
36258;BME280;22294;52.044;4.582;2023-02-21T08:52:14;77306.91;;;-144.37;100.00
36258;BME280;22294;52.044;4.582;2023-02-21T08:54:40;77298.72;;;-144.37;100.00
36258;BME280;22294;52.044;4.582;2023-02-21T08:57:06;77302.81;;;-144.37;100.00
36258;BME280;22294;52.044;4.582;2023-02-21T08:59:31;77300.78;;;-144.37;100.00
36258;BME280;22294;52.044;4.582;2023-02-21T09:01:58;77294.63;;;-144.37;100.00
36258;BME280;22294;52.044;4.582;2023-02-21T09:04:24;77300.78;;;-144.37;100.00
36258;BME280;22294;52.044;4.582;2023-02-21T09:06:52;77306.91;;;-144.37;100.00
36258;BME280;22294;52.044;4.582;2023-02-21T09:09:17;77306.91;;;-144.37;100.00
36258;BME280;22294;52.044;4.582;2023-02-21T09:11:43;77308.97;;;-144.37;100.00
36258;BME280;22294;52.044;4.582;2023-02-21T09:14:11;77300.78;;;-144.37;100.00
36258;BME280;22294;52.044;4.582;2023-02-21T09:16:37;77298.72;;;-144.37;100.00
36258;BME280;22294;52.044;4.582;2023-02-21T09:19:02;77288.50;;;-144.37;100.00
36258;BME280;22294;52.044;4.582;2023-02-21T09:21:31;77294.63;;;-144.37;100.00
36258;BME280;22294;52.044;4.582;2023-02-21T09:23:56;77290.53;;;-144.37;100.00
36258;BME280;22294;52.044;4.582;2023-02-21T09:26:23;77290.53;;;-144.37;100.00
36258;BME280;22294;52.044;4.582;2023-02-21T09:28:50;77292.59;;;-144.37;100.00
36258;BME280;22294;52.044;4.582;2023-02-21T09:31:16;77284.41;;;-144.37;100.00
36258;BME280;22294;52.044;4.582;2023-02-21T09:33:41;77274.19;;;-144.37;100.00
36258;BME280;22294;52.044;4.582;2023-02-21T09:36:08;77276.22;;;-144.37;100.00
36258;BME280;22294;52.044;4.582;2023-02-21T09:38:33;77268.03;;;-144.37;100.00
36258;BME280;22294;52.044;4.582;2023-02-21T09:41:00;77259.84;;;-144.37;100.00
36258;BME280;22294;52.044;4.582;2023-02-21T09:43:33;77253.72;;;-144.37;100.00
36258;BME280;22294;52.044;4.582;2023-02-21T09:46:02;77253.72;;;-144.37;100.00
36258;BME280;22294;52.044;4.582;2023-02-21T09:48:29;77247.59;;;-144.37;100.00
36258;BME280;22294;52.044;4.582;2023-02-21T09:50:58;77245.53;;;-144.37;100.00
36258;BME280;22294;52.044;4.582;2023-02-21T09:53:28;77255.78;;;-144.37;100.00
36258;BME280;22294;52.044;4.582;2023-02-21T09:56:02;77259.84;;;-144.37;100.00
36258;BME280;22294;52.044;4.582;2023-02-21T09:58:28;77253.72;;;-144.37;100.00
36258;BME280;22294;52.044;4.582;2023-02-21T10:00:57;77253.72;;;-144.37;100.00
36258;BME280;22294;52.044;4.582;2023-02-21T10:03:43;77259.84;;;-144.37;100.00
36258;BME280;22294;52.044;4.582;2023-02-21T10:06:29;77245.53;;;-144.37;100.00
36258;BME280;22294;52.044;4.582;2023-02-21T10:09:02;77247.59;;;-144.37;100.00
36258;BME280;22294;52.044;4.582;2023-02-21T10:11:40;77241.44;;;-144.37;100.00
36258;BME280;22294;52.044;4.582;2023-02-21T10:14:18;77243.50;;;-144.37;100.00
36258;BME280;22294;52.044;4.582;2023-02-21T10:16:55;77249.63;;;-144.37;100.00
36258;BME280;22294;52.044;4.582;2023-02-21T10:19:29;77239.41;;;-144.37;100.00
36258;BME280;22294;52.044;4.582;2023-02-21T10:21:59;77235.31;;;-144.37;100.00
36258;BME280;22294;52.044;4.582;2023-02-21T10:24:27;77235.31;;;-144.37;100.00
36258;BME280;22294;52.044;4.582;2023-02-21T10:27:05;77235.31;;;-144.37;100.00
36258;BME280;22294;52.044;4.582;2023-02-21T10:29:51;77249.63;;;-144.37;100.00
36258;BME280;22294;52.044;4.582;2023-02-21T10:32:20;77247.59;;;-144.37;100.00
36258;BME280;22294;52.044;4.582;2023-02-21T10:34:47;77251.69;;;-144.37;100.00
36258;BME280;22294;52.044;4.582;2023-02-21T10:37:41;77263.94;;;-144.37;100.00
36258;BME280;22294;52.044;4.582;2023-02-21T10:48:09;77272.13;;;-144.37;100.00
36258;BME280;22294;52.044;4.582;2023-02-21T10:50:49;77270.09;;;-144.37;100.00
36258;BME280;22294;52.044;4.582;2023-02-21T10:53:28;77272.13;;;-144.37;100.00
36258;BME280;22294;52.044;4.582;2023-02-21T10:58:45;77268.03;;;-144.37;100.00
36258;BME280;22294;52.044;4.582;2023-02-21T11:01:15;77278.28;;;-144.37;100.00
36258;BME280;22294;52.044;4.582;2023-02-21T11:03:48;77268.03;;;-144.37;100.00
36258;BME280;22294;52.044;4.582;2023-02-21T11:06:23;77272.13;;;-144.37;100.00
36258;BME280;22294;52.044;4.582;2023-02-21T11:08:50;77270.09;;;-144.37;100.00
36258;BME280;22294;52.044;4.582;2023-02-21T11:11:15;77263.94;;;-144.37;100.00
36258;BME280;22294;52.044;4.582;2023-02-21T11:14:27;77263.94;;;-144.37;100.00
36258;BME280;22294;52.044;4.582;2023-02-21T11:19:49;77268.03;;;-144.37;100.00
36258;BME280;22294;52.044;4.582;2023-02-21T11:22:18;77263.94;;;-144.37;100.00
36258;BME280;22294;52.044;4.582;2023-02-21T11:27:13;77255.78;;;-144.37;100.00
36258;BME280;22294;52.044;4.582;2023-02-21T11:29:42;77261.91;;;-144.37;100.00
36258;BME280;22294;52.044;4.582;2023-02-21T11:32:18;77274.19;;;-144.37;100.00
36258;BME280;22294;52.044;4.582;2023-02-21T11:34:46;77266.00;;;-144.37;100.00
36258;BME280;22294;52.044;4.582;2023-02-21T11:37:13;77263.94;;;-144.37;100.00
36258;BME280;22294;52.044;4.582;2023-02-21T11:39:39;77259.84;;;-144.37;100.00
36258;BME280;22294;52.044;4.582;2023-02-21T11:42:24;77257.81;;;-144.37;100.00
36258;BME280;22294;52.044;4.582;2023-02-21T11:45:09;77257.81;;;-144.37;100.00
36258;BME280;22294;52.044;4.582;2023-02-21T11:47:42;77249.63;;;-144.37;100.00
36258;BME280;22294;52.044;4.582;2023-02-21T11:50:32;77245.53;;;-144.37;100.00
36258;BME280;22294;52.044;4.582;2023-02-21T11:53:14;77245.53;;;-144.37;100.00
36258;BME280;22294;52.044;4.582;2023-02-21T12:00:57;77229.19;;;-144.37;100.00
36258;BME280;22294;52.044;4.582;2023-02-21T12:03:47;77216.91;;;-144.37;100.00
36258;BME280;22294;52.044;4.582;2023-02-21T12:06:30;77214.84;;;-144.37;100.00
36258;BME280;22294;52.044;4.582;2023-02-21T12:09:24;77210.75;;;-144.37;100.00
36258;BME280;22294;52.044;4.582;2023-02-21T12:15:06;77190.31;;;-144.37;100.00
36258;BME280;22294;52.044;4.582;2023-02-21T12:17:41;77188.25;;;-144.37;100.00
36258;BME280;22294;52.044;4.582;2023-02-21T12:23:03;77175.97;;;-144.37;100.00
36258;BME280;22294;52.044;4.582;2023-02-21T12:25:33;77178.03;;;-144.37;100.00
36258;BME280;22294;52.044;4.582;2023-02-21T12:28:12;77175.97;;;-144.37;100.00
36258;BME280;22294;52.044;4.582;2023-02-21T12:39:07;77182.13;;;-144.37;100.00
36258;BME280;22294;52.044;4.582;2023-02-21T12:44:20;77180.06;;;-144.37;100.00
36258;BME280;22294;52.044;4.582;2023-02-21T12:46:55;77186.22;;;-144.37;100.00
36258;BME280;22294;52.044;4.582;2023-02-21T12:49:26;77175.97;;;-144.37;100.00
36258;BME280;22294;52.044;4.582;2023-02-21T12:52:42;77175.97;;;-144.37;100.00
36258;BME280;22294;52.044;4.582;2023-02-21T12:55:35;77186.22;;;-144.37;100.00
36258;BME280;22294;52.044;4.582;2023-02-21T12:58:25;77190.31;;;-144.37;100.00
36258;BME280;22294;52.044;4.582;2023-02-21T13:01:32;77190.31;;;-144.37;100.00
36258;BME280;22294;52.044;4.582;2023-02-21T13:04:10;77200.53;;;-144.37;100.00
36258;BME280;22294;52.044;4.582;2023-02-21T13:09:20;77184.16;;;-144.37;100.00
36258;BME280;22294;52.044;4.582;2023-02-21T13:14:36;77192.34;;;-144.37;100.00
36258;BME280;22294;52.044;4.582;2023-02-21T13:17:03;77190.31;;;-144.37;100.00
36258;BME280;22294;52.044;4.582;2023-02-21T13:19:42;77184.16;;;-144.37;100.00
36258;BME280;22294;52.044;4.582;2023-02-21T13:22:17;77194.41;;;-144.37;100.00
36258;BME280;22294;52.044;4.582;2023-02-21T13:28:05;77194.41;;;-144.37;100.00
36258;BME280;22294;52.044;4.582;2023-02-21T13:30:38;77188.25;;;-144.37;100.00
36258;BME280;22294;52.044;4.582;2023-02-21T13:33:04;77184.16;;;-144.37;100.00
36258;BME280;22294;52.044;4.582;2023-02-21T13:35:36;77182.13;;;-144.37;100.00
36258;BME280;22294;52.044;4.582;2023-02-21T13:38:07;77178.03;;;-144.37;100.00
36258;BME280;22294;52.044;4.582;2023-02-21T13:40:38;77173.94;;;-144.37;100.00
36258;BME280;22294;52.044;4.582;2023-02-21T13:43:12;77175.97;;;-144.37;100.00
36258;BME280;22294;52.044;4.582;2023-02-21T13:45:40;77182.13;;;-144.37;100.00
36258;BME280;22294;52.044;4.582;2023-02-21T13:58:38;77161.66;;;-144.37;100.00
36258;BME280;22294;52.044;4.582;2023-02-21T14:03:54;77171.91;;;-144.37;100.00
36258;BME280;22294;52.044;4.582;2023-02-21T14:06:27;77175.97;;;-144.37;100.00
36258;BME280;22294;52.044;4.582;2023-02-21T14:08:57;77175.97;;;-144.37;100.00
36258;BME280;22294;52.044;4.582;2023-02-21T14:11:28;77182.13;;;-144.37;100.00
36258;BME280;22294;52.044;4.582;2023-02-21T14:14:26;77175.97;;;-144.37;100.00
36258;BME280;22294;52.044;4.582;2023-02-21T14:17:03;77194.41;;;-144.37;100.00
36258;BME280;22294;52.044;4.582;2023-02-21T14:19:40;77194.41;;;-144.37;100.00